• Join FlightAware (Why Join?)
  • Login
  • US Flag 
01:36AM EDT


 

Airport Tracker/Info


-or-


 

Live Flight TrackerFlight Track Log ✈ N589H ✈ 26-Jan-2014 ✈ MDSD / SDQ - MYNN / NAS

Flight Track Log - Related Links

Times and Time Zones

All times are in EST time to prevent confusion due to time zone crossing. See the N589H flight status page for this flight to view local times or setup timezone preferences in your user account.

Time Position Orientation Groundspeed Altitude Reporting Facility
EST Latitude Longitude Course Direction KTS MPH feet Rate Location/Type
11:55AM 18.8783 -70.2894 332° Northwest 369 425 21,300  Level Miami Center
11:56AM 18.9467 -70.3278 332° Northwest 326 375 22,500 1,260 Climbing Miami Center
11:57AM 19.0125 -70.3642 332° Northwest 296 341 23,900 1,200 Climbing Miami Center
11:58AM 19.0867 -70.3981 337° Northwest 279 321 24,900 960 Climbing Miami Center
11:59AM 19.1572 -70.4408 330° Northwest 285 328 25,900 1,020 Climbing Miami Center
12:00PM 19.2336 -70.4769 336° Northwest 290 334 27,000 960 Climbing Miami Center
12:01PM 19.3083 -70.5217 331° Northwest 295 339 27,900 480 Climbing Miami Center
12:02PM 19.3847 -70.5622 333° Northwest 300 345 28,000  Climbing Miami Center
12:03PM 19.4678 -70.6089 332° Northwest 322 371 28,000  Level Miami Center
12:04PM 19.5572 -70.6556 334° Northwest 340 391 28,000  Level Miami Center
12:05PM 19.6444 -70.7022 333° Northwest 352 405 28,000  Level Miami Center
12:06PM 19.7358 -70.7511 333° Northwest 357 411 28,000  Level Miami Center
12:07PM 19.8272 -70.7956 335° Northwest 357 411 28,000  Level Miami Center
12:08PM 19.9167 -70.8489 331° Northwest 357 411 28,000  Level Miami Center
12:09PM 20.0061 -70.8981 333° Northwest 357 411 28,000  Level Miami Center
12:10PM 20.0956 -70.9472 333° Northwest 357 411 28,000  Level Miami Center
12:11PM 20.1869 -70.9939 334° Northwest 357 411 28,000  Level Miami Center
12:12PM 20.2803 -71.0431 334° Northwest 357 411 28,000  Level Miami Center
12:13PM 20.3719 -71.0944 332° Northwest 357 411 28,000  Level Miami Center
12:14PM 20.4514 -71.1575 323° Northwest 357 411 28,000  Level Miami Center
12:15PM 20.5128 -71.2433 307° West 348 400 28,000  Level Miami Center
12:16PM 20.5742 -71.3228 310° West 353 406 28,000  Level Miami Center
12:17PM 20.6375 -71.4067 309° West 359 413 28,000  Level Miami Center
12:18PM 20.7031 -71.4906 310° West 364 419 28,000  Level Miami Center
12:19PM 20.7642 -71.5700 309° West 364 419 28,000  Level Miami Center
12:21PM 20.8928 -71.7358 309° West 364 419 28,000  Level Miami Center
12:22PM 20.9558 -71.8203 309° West 364 419 28,000  Level Miami Center
12:23PM 21.0169 -71.9022 309° West 364 419 28,000  Level Miami Center
12:24PM 21.0803 -71.9844 310° West 364 419 28,000  Level Miami Center
12:25PM 21.1367 -72.0581 309° West 364 419 28,000  Level Miami Center
12:26PM 21.1997 -72.1425 309° West 364 419 28,000  Level Miami Center
12:27PM 21.2628 -72.2250 309° West 364 419 28,000  Level Miami Center
12:28PM 21.3258 -72.3053 310° West 364 419 28,000  Level Miami Center
12:29PM 21.3886 -72.3878 309° West 364 419 28,000  Level Miami Center
12:30PM 21.4517 -72.4703 309° West 364 419 28,000  Level Miami Center
12:31PM 21.5144 -72.5553 308° West 364 419 28,000  Level Miami Center
12:32PM 21.5772 -72.6381 309° West 364 419 28,000  Level Miami Center
12:33PM 21.6400 -72.7208 309° West 364 419 28,000  Level Miami Center
12:34PM 21.7008 -72.8039 308° West 364 419 28,000  Level Miami Center
12:35PM 21.7656 -72.8844 311° West 364 419 28,000  Level Miami Center
12:36PM 21.8261 -72.9653 309° West 364 419 28,000  Level Miami Center
12:37PM 21.8736 -73.0311 308° West 359 413 28,000  Level Miami Center
12:38PM 21.9361 -73.1144 309° West 359 413 28,000  Level Miami Center
12:39PM 22.0008 -73.1975 310° West 364 419 28,000  Level Miami Center
12:40PM 22.0592 -73.2811 307° West 364 419 28,000  Level Miami Center
12:41PM 22.1217 -73.3644 309° West 359 413 28,000  Level Miami Center
12:42PM 22.1819 -73.4458 309° West 359 413 28,000  Level Miami Center
12:43PM 22.2422 -73.5294 308° West 359 413 28,000  Level Miami Center
12:44PM 22.3047 -73.6156 308° West 364 419 28,000  Level Miami Center
12:45PM 22.3672 -73.6992 309° West 364 419 28,000  Level Miami Center
12:46PM 22.4272 -73.7831 308° West 364 419 28,000  Level Miami Center
12:47PM 22.4894 -73.8669 309° West 364 419 28,000  Level Miami Center
12:48PM 22.5475 -73.9511 307° West 359 413 28,000  Level Miami Center
12:49PM 22.6117 -74.0308 311° West 359 413 28,000  Level Miami Center
12:50PM 22.6739 -74.1125 310° West 359 413 28,000  Level Miami Center
12:51PM 22.7317 -74.1969 307° West 359 413 28,000 420 Level Miami Center
12:52PM 22.7958 -74.2767 311° West 359 413 28,900 1,200 Climbing Miami Center
12:53PM 22.8450 -74.3481 307° West 336 387 30,500 1,200 Climbing Miami Center
12:54PM 22.8964 -74.4122 311° West 305 351 31,400 720 Climbing Miami Center
12:55PM 22.9456 -74.4836 307° West 291 335 32,000 300 Climbing Miami Center
12:56PM 22.9986 -74.5525 310° West 291 335 32,000  Level Miami Center
12:57PM 23.0667 -74.6167 319° Northwest 303 349 32,000  Level Miami Center
12:58PM 23.1531 -74.6650 333° Northwest 330 380 32,000  Level Miami Center
12:59PM 23.2331 -74.7247 326° Northwest 340 391 32,000  Level Miami Center
01:00PM 23.2886 -74.8050 307° West 335 386 32,000  Level Miami Center
01:01PM 23.3442 -74.8881 306° West 335 386 32,000  Level Miami Center
01:02PM 23.3975 -74.9708 305° West 340 391 32,000  Level Miami Center
01:03PM 23.4547 -75.0539 307° West 340 391 32,000 -420 Level Miami Center
01:04PM 23.5103 -75.1392 305° West 345 397 31,200 -840 Descending Miami Center
01:05PM 23.5717 -75.2289 307° West 357 411 30,400 -840 Descending Miami Center
01:06PM 23.6333 -75.3189 307° West 362 417 29,600 -840 Descending Miami Center
01:07PM 23.6928 -75.4111 305° West 369 425 28,800 -840 Descending Miami Center
01:08PM 23.7628 -75.5103 308° West 375 432 28,000 -420 Descending Miami Center
01:09PM 23.8200 -75.6006 305° West 375 432 28,000  Level Miami Center
01:10PM 23.8792 -75.6886 306° West 370 426 28,000  Level Miami Center
01:11PM 23.9361 -75.7744 306° West 365 420 28,000 -720 Level Miami Center
01:12PM 23.9953 -75.8672 305° West 365 420 26,600 -1,440 Descending Miami Center
01:13PM 24.0567 -75.9622 305° West 377 434 25,200 -1,440 Descending Miami Center
01:14PM 24.1136 -76.0506 305° West 377 434 23,800 -1,500 Descending Miami Center
01:15PM 24.1725 -76.1392 306° West 371 427 22,300 -1,440 Descending Miami Center
01:16PM 24.2292 -76.2275 305° West 366 421 21,000 -6,180 Descending Miami Center
01:17PM 24.2839 -76.3072 307° West 350 403 10,000 -1,500 Descending Miami Center
01:18PM 24.3364 -76.3914 304° West 344 396 18,100 3,360 Climbing Miami Center
01:19PM 24.3889 -76.4708 306° West 338 389 16,800 -1,320 Descending Miami Center
01:20PM 24.4372 -76.5439 306° West 332 382 15,500 -1,380 Descending Miami Center
01:21PM 24.4875 -76.6258 304° West 326 375 14,100 -1,500 Descending Miami Center
01:22PM 24.5400 -76.7033 307° West 321 369 12,600 -1,500 Descending Miami Center
01:23PM 24.5881 -76.7833 303° West 321 369 11,200 -1,320 Descending Miami Center
01:24PM 24.6383 -76.8564 307° West 311 358 10,000 -600 Descending Miami Center
01:25PM 24.6883 -76.9275 308° West 311 358 10,000  Level Miami Center
01:26PM 24.7342 -77.0006 305° West 306 352 10,000  Level Miami Center
01:27PM 24.7822 -77.0739 306° West 306 352 10,000  Level Miami Center
01:29PM 24.8726 -77.2173 306° West  Level FlightAware Approximate
01:36PM 25.0333 -77.4500 310° West  Level FlightAware Approximate
01:37PM 25.0390 -77.4662 310° West  Level Estimated
01:38PM 25.0390 -77.4662 310° West  Level Estimated
01:39PM 25.0390 -77.4662 310° West  Level Estimated
01:40PM 25.0390 -77.4662 310° West  Level Estimated
01:41PM 25.0390 -77.4662 310° West  Level Estimated
01:42PM 25.0390 -77.4662 310° West  Level Estimated
01:43PM 25.0390 -77.4662 310° West  Level Estimated
01:44PM 25.0390 -77.4662 310° West  Level Estimated
01:45PM 25.0390 -77.4662 310° West  Level Estimated
01:46PM 25.0390 -77.4662 310° West  Level Estimated
01:47PM 25.0390 -77.4662 310° West  Level Estimated